sensor_id;sensor_type;location;lat;lon;timestamp;temperature;humidity
10662;DHT22;5379;51.034;7.006;2023-05-29T04:32:04;16.20;99.60
10662;DHT22;5379;51.034;7.006;2023-05-29T04:34:31;16.20;99.90
10662;DHT22;5379;51.034;7.006;2023-05-29T04:36:58;16.20;99.90
10662;DHT22;5379;51.034;7.006;2023-05-29T04:39:25;16.30;99.90
10662;DHT22;5379;51.034;7.006;2023-05-29T04:41:53;16.20;99.90
10662;DHT22;5379;51.034;7.006;2023-05-29T04:44:20;16.40;99.90
10662;DHT22;5379;51.034;7.006;2023-05-29T04:46:46;16.50;99.90
10662;DHT22;5379;51.034;7.006;2023-05-29T04:49:15;16.40;99.90
10662;DHT22;5379;51.034;7.006;2023-05-29T04:51:42;16.30;99.90
10662;DHT22;5379;51.034;7.006;2023-05-29T04:54:11;16.20;99.90
10662;DHT22;5379;51.034;7.006;2023-05-29T04:56:38;16.40;99.90
10662;DHT22;5379;51.034;7.006;2023-05-29T04:59:06;16.50;99.90
10662;DHT22;5379;51.034;7.006;2023-05-29T05:01:33;16.50;99.90
10662;DHT22;5379;51.034;7.006;2023-05-29T05:04:00;16.60;99.90
10662;DHT22;5379;51.034;7.006;2023-05-29T05:06:28;16.50;99.90
10662;DHT22;5379;51.034;7.006;2023-05-29T05:08:55;16.50;99.90
10662;DHT22;5379;51.034;7.006;2023-05-29T05:11:23;16.40;99.90
10662;DHT22;5379;51.034;7.006;2023-05-29T05:13:50;16.40;99.90
10662;DHT22;5379;51.034;7.006;2023-05-29T05:16:17;16.60;99.90
10662;DHT22;5379;51.034;7.006;2023-05-29T05:18:45;16.90;99.90
10662;DHT22;5379;51.034;7.006;2023-05-29T05:21:11;17.00;99.90
10662;DHT22;5379;51.034;7.006;2023-05-29T05:23:40;17.10;99.90
10662;DHT22;5379;51.034;7.006;2023-05-29T05:26:07;17.20;99.70
10662;DHT22;5379;51.034;7.006;2023-05-29T05:28:34;17.10;99.70
10662;DHT22;5379;51.034;7.006;2023-05-29T05:31:01;17.00;99.80
10662;DHT22;5379;51.034;7.006;2023-05-29T05:33:28;17.00;99.90
10662;DHT22;5379;51.034;7.006;2023-05-29T05:35:55;16.90;99.60
10662;DHT22;5379;51.034;7.006;2023-05-29T05:38:22;17.00;99.40
10662;DHT22;5379;51.034;7.006;2023-05-29T05:40:50;16.90;99.80
10662;DHT22;5379;51.034;7.006;2023-05-29T05:43:17;16.70;99.60
10662;DHT22;5379;51.034;7.006;2023-05-29T05:45:44;16.60;99.90
10662;DHT22;5379;51.034;7.006;2023-05-29T05:48:11;16.70;99.90
10662;DHT22;5379;51.034;7.006;2023-05-29T05:50:38;17.00;99.70
10662;DHT22;5379;51.034;7.006;2023-05-29T05:53:06;16.90;99.60
10662;DHT22;5379;51.034;7.006;2023-05-29T05:55:33;17.10;99.60
10662;DHT22;5379;51.034;7.006;2023-05-29T05:58:01;17.00;98.80
10662;DHT22;5379;51.034;7.006;2023-05-29T06:00:28;16.80;99.30
10662;DHT22;5379;51.034;7.006;2023-05-29T06:02:55;16.70;99.50
10662;DHT22;5379;51.034;7.006;2023-05-29T06:05:23;16.70;99.50
10662;DHT22;5379;51.034;7.006;2023-05-29T06:07:50;16.90;99.40
10662;DHT22;5379;51.034;7.006;2023-05-29T06:10:16;17.00;99.60
10662;DHT22;5379;51.034;7.006;2023-05-29T06:12:44;17.20;99.40
10662;DHT22;5379;51.034;7.006;2023-05-29T06:15:12;17.20;98.70
10662;DHT22;5379;51.034;7.006;2023-05-29T06:17:40;17.30;99.40
10662;DHT22;5379;51.034;7.006;2023-05-29T06:20:07;17.20;99.00
10662;DHT22;5379;51.034;7.006;2023-05-29T06:22:36;17.20;99.10
10662;DHT22;5379;51.034;7.006;2023-05-29T06:25:03;17.50;98.90
10662;DHT22;5379;51.034;7.006;2023-05-29T06:27:30;17.70;98.50
10662;DHT22;5379;51.034;7.006;2023-05-29T06:29:57;17.60;98.40
10662;DHT22;5379;51.034;7.006;2023-05-29T06:32:25;17.30;98.80
10662;DHT22;5379;51.034;7.006;2023-05-29T06:34:54;17.30;98.50
10662;DHT22;5379;51.034;7.006;2023-05-29T06:37:20;17.20;98.70
10662;DHT22;5379;51.034;7.006;2023-05-29T06:39:47;17.30;99.00
10662;DHT22;5379;51.034;7.006;2023-05-29T06:42:14;17.40;99.10
10662;DHT22;5379;51.034;7.006;2023-05-29T06:44:41;17.40;98.90
10662;DHT22;5379;51.034;7.006;2023-05-29T06:47:08;17.60;99.10
10662;DHT22;5379;51.034;7.006;2023-05-29T06:49:36;17.70;98.90
10662;DHT22;5379;51.034;7.006;2023-05-29T06:52:03;17.80;98.80
10662;DHT22;5379;51.034;7.006;2023-05-29T06:54:30;17.80;98.80
10662;DHT22;5379;51.034;7.006;2023-05-29T06:56:57;17.80;98.70
10662;DHT22;5379;51.034;7.006;2023-05-29T06:59:24;18.10;99.10
10662;DHT22;5379;51.034;7.006;2023-05-29T07:01:51;17.90;98.20
10662;DHT22;5379;51.034;7.006;2023-05-29T07:04:18;18.10;98.60
10662;DHT22;5379;51.034;7.006;2023-05-29T07:06:47;18.20;98.90
10662;DHT22;5379;51.034;7.006;2023-05-29T07:09:13;18.20;98.00
10662;DHT22;5379;51.034;7.006;2023-05-29T07:11:40;18.10;98.60
10662;DHT22;5379;51.034;7.006;2023-05-29T07:14:07;18.20;98.20
10662;DHT22;5379;51.034;7.006;2023-05-29T07:16:34;18.20;98.50
10662;DHT22;5379;51.034;7.006;2023-05-29T07:19:01;18.40;98.60
10662;DHT22;5379;51.034;7.006;2023-05-29T07:21:28;18.70;98.50
10662;DHT22;5379;51.034;7.006;2023-05-29T07:23:59;19.00;98.20
10662;DHT22;5379;51.034;7.006;2023-05-29T07:26:25;18.80;97.70
10662;DHT22;5379;51.034;7.006;2023-05-29T07:28:52;18.80;98.30
10662;DHT22;5379;51.034;7.006;2023-05-29T07:31:19;19.10;98.20
10662;DHT22;5379;51.034;7.006;2023-05-29T07:33:46;19.30;97.80
10662;DHT22;5379;51.034;7.006;2023-05-29T07:36:15;19.10;98.20
10662;DHT22;5379;51.034;7.006;2023-05-29T07:38:42;19.20;97.20
10662;DHT22;5379;51.034;7.006;2023-05-29T07:41:11;18.90;98.30
10662;DHT22;5379;51.034;7.006;2023-05-29T07:43:38;19.60;97.80
10662;DHT22;5379;51.034;7.006;2023-05-29T07:46:05;19.60;97.30
10662;DHT22;5379;51.034;7.006;2023-05-29T07:48:32;19.50;97.60
10662;DHT22;5379;51.034;7.006;2023-05-29T07:50:59;19.70;98.10
10662;DHT22;5379;51.034;7.006;2023-05-29T07:53:26;19.50;97.50
10662;DHT22;5379;51.034;7.006;2023-05-29T07:55:53;19.70;97.50
10662;DHT22;5379;51.034;7.006;2023-05-29T07:58:22;20.20;96.60
10662;DHT22;5379;51.034;7.006;2023-05-29T08:00:49;20.20;97.10
10662;DHT22;5379;51.034;7.006;2023-05-29T08:03:16;20.10;96.90
10662;DHT22;5379;51.034;7.006;2023-05-29T08:05:43;20.20;97.20
10662;DHT22;5379;51.034;7.006;2023-05-29T08:08:10;19.80;97.10
10662;DHT22;5379;51.034;7.006;2023-05-29T08:10:38;19.90;98.20
10662;DHT22;5379;51.034;7.006;2023-05-29T08:13:05;20.00;97.00
10662;DHT22;5379;51.034;7.006;2023-05-29T08:15:33;20.20;97.10
10662;DHT22;5379;51.034;7.006;2023-05-29T08:18:00;20.00;97.20
10662;DHT22;5379;51.034;7.006;2023-05-29T08:20:27;20.20;97.00
10662;DHT22;5379;51.034;7.006;2023-05-29T08:22:54;20.40;97.70
10662;DHT22;5379;51.034;7.006;2023-05-29T08:25:21;20.60;97.50
10662;DHT22;5379;51.034;7.006;2023-05-29T08:27:48;20.70;97.10
10662;DHT22;5379;51.034;7.006;2023-05-29T08:30:15;20.90;97.70
10662;DHT22;5379;51.034;7.006;2023-05-29T08:32:43;21.40;96.10
10662;DHT22;5379;51.034;7.006;2023-05-29T08:35:11;21.20;96.70
10662;DHT22;5379;51.034;7.006;2023-05-29T08:37:38;21.40;96.00
10662;DHT22;5379;51.034;7.006;2023-05-29T08:40:06;21.30;97.30
10662;DHT22;5379;51.034;7.006;2023-05-29T08:42:38;20.50;96.50
10662;DHT22;5379;51.034;7.006;2023-05-29T08:45:08;20.70;97.20
10662;DHT22;5379;51.034;7.006;2023-05-29T08:47:40;20.70;96.60
10662;DHT22;5379;51.034;7.006;2023-05-29T08:50:09;20.60;97.00
10662;DHT22;5379;51.034;7.006;2023-05-29T08:52:37;20.90;96.90
10662;DHT22;5379;51.034;7.006;2023-05-29T08:55:07;21.00;97.00
10662;DHT22;5379;51.034;7.006;2023-05-29T08:57:34;21.50;95.80
10662;DHT22;5379;51.034;7.006;2023-05-29T09:00:04;21.10;96.40
10662;DHT22;5379;51.034;7.006;2023-05-29T09:02:37;20.80;96.80
10662;DHT22;5379;51.034;7.006;2023-05-29T09:05:05;20.90;97.30
10662;DHT22;5379;51.034;7.006;2023-05-29T09:07:33;21.50;96.60
10662;DHT22;5379;51.034;7.006;2023-05-29T09:10:04;21.40;96.20
10662;DHT22;5379;51.034;7.006;2023-05-29T09:12:32;21.10;96.60
10662;DHT22;5379;51.034;7.006;2023-05-29T09:14:59;21.00;96.50
10662;DHT22;5379;51.034;7.006;2023-05-29T09:17:30;21.00;96.90
10662;DHT22;5379;51.034;7.006;2023-05-29T09:19:58;21.20;96.50
10662;DHT22;5379;51.034;7.006;2023-05-29T09:22:26;21.50;96.20
10662;DHT22;5379;51.034;7.006;2023-05-29T09:24:54;21.40;96.30
10662;DHT22;5379;51.034;7.006;2023-05-29T09:27:22;21.10;96.60
10662;DHT22;5379;51.034;7.006;2023-05-29T09:29:49;20.80;96.60
10662;DHT22;5379;51.034;7.006;2023-05-29T09:32:17;21.00;97.40
10662;DHT22;5379;51.034;7.006;2023-05-29T09:34:44;21.20;96.50
10662;DHT22;5379;51.034;7.006;2023-05-29T09:37:11;21.00;96.40
10662;DHT22;5379;51.034;7.006;2023-05-29T09:39:45;20.80;96.60
10662;DHT22;5379;51.034;7.006;2023-05-29T09:42:14;21.00;96.60
10662;DHT22;5379;51.034;7.006;2023-05-29T09:44:42;21.40;95.80
10662;DHT22;5379;51.034;7.006;2023-05-29T09:47:09;21.40;96.10
10662;DHT22;5379;51.034;7.006;2023-05-29T09:49:41;21.40;96.10
10662;DHT22;5379;51.034;7.006;2023-05-29T09:52:10;21.70;97.50
10662;DHT22;5379;51.034;7.006;2023-05-29T09:54:41;22.40;96.60
10662;DHT22;5379;51.034;7.006;2023-05-29T09:57:14;21.80;96.50
10662;DHT22;5379;51.034;7.006;2023-05-29T09:59:43;22.40;97.20
10662;DHT22;5379;51.034;7.006;2023-05-29T10:02:14;22.70;95.70
10662;DHT22;5379;51.034;7.006;2023-05-29T10:04:41;22.60;95.50
10662;DHT22;5379;51.034;7.006;2023-05-29T10:07:12;21.70;96.10
10662;DHT22;5379;51.034;7.006;2023-05-29T10:09:44;22.00;96.60
10662;DHT22;5379;51.034;7.006;2023-05-29T10:12:15;22.50;96.20
10662;DHT22;5379;51.034;7.006;2023-05-29T10:14:47;22.40;96.50
10662;DHT22;5379;51.034;7.006;2023-05-29T10:17:15;23.30;94.80
10662;DHT22;5379;51.034;7.006;2023-05-29T10:19:45;22.00;95.50
10662;DHT22;5379;51.034;7.006;2023-05-29T10:22:14;21.80;96.90
10662;DHT22;5379;51.034;7.006;2023-05-29T10:24:43;22.00;97.00
10662;DHT22;5379;51.034;7.006;2023-05-29T10:27:10;21.60;96.50
10662;DHT22;5379;51.034;7.006;2023-05-29T10:29:43;21.20;96.50
10662;DHT22;5379;51.034;7.006;2023-05-29T10:32:21;21.20;96.40
10662;DHT22;5379;51.034;7.006;2023-05-29T10:34:56;21.50;97.40
10662;DHT22;5379;51.034;7.006;2023-05-29T10:37:32;22.20;96.50
10662;DHT22;5379;51.034;7.006;2023-05-29T10:40:05;22.30;96.30
10662;DHT22;5379;51.034;7.006;2023-05-29T10:42:47;21.90;95.80
10662;DHT22;5379;51.034;7.006;2023-05-29T10:45:48;21.70;96.20
10662;DHT22;5379;51.034;7.006;2023-05-29T10:48:39;21.60;96.70
10662;DHT22;5379;51.034;7.006;2023-05-29T10:51:07;21.80;96.60
10662;DHT22;5379;51.034;7.006;2023-05-29T10:53:34;21.90;96.60
10662;DHT22;5379;51.034;7.006;2023-05-29T10:56:08;21.80;96.30
10662;DHT22;5379;51.034;7.006;2023-05-29T10:58:37;22.40;96.20
10662;DHT22;5379;51.034;7.006;2023-05-29T11:01:08;22.20;96.10
10662;DHT22;5379;51.034;7.006;2023-05-29T11:03:35;21.80;96.10
10662;DHT22;5379;51.034;7.006;2023-05-29T11:06:04;22.30;96.50
10662;DHT22;5379;51.034;7.006;2023-05-29T11:08:35;22.30;96.70
10662;DHT22;5379;51.034;7.006;2023-05-29T11:11:03;22.20;95.90
10662;DHT22;5379;51.034;7.006;2023-05-29T11:13:33;22.60;96.30
10662;DHT22;5379;51.034;7.006;2023-05-29T11:19:05;22.50;95.60
10662;DHT22;5379;51.034;7.006;2023-05-29T11:21:37;22.60;96.20
10662;DHT22;5379;51.034;7.006;2023-05-29T11:24:06;22.40;96.10
10662;DHT22;5379;51.034;7.006;2023-05-29T11:26:33;23.10;96.30
10662;DHT22;5379;51.034;7.006;2023-05-29T11:29:03;23.20;96.10
10662;DHT22;5379;51.034;7.006;2023-05-29T11:31:32;22.80;96.10
10662;DHT22;5379;51.034;7.006;2023-05-29T11:34:01;22.90;95.90
10662;DHT22;5379;51.034;7.006;2023-05-29T11:36:32;23.10;96.30
10662;DHT22;5379;51.034;7.006;2023-05-29T11:39:00;23.10;95.60
10662;DHT22;5379;51.034;7.006;2023-05-29T11:41:27;23.30;95.40
10662;DHT22;5379;51.034;7.006;2023-05-29T11:43:58;23.20;95.90
10662;DHT22;5379;51.034;7.006;2023-05-29T11:46:25;23.60;95.80
10662;DHT22;5379;51.034;7.006;2023-05-29T11:48:53;24.00;95.90
10662;DHT22;5379;51.034;7.006;2023-05-29T11:51:20;23.30;95.30
10662;DHT22;5379;51.034;7.006;2023-05-29T11:53:49;23.40;95.20
10662;DHT22;5379;51.034;7.006;2023-05-29T11:56:18;23.40;95.20
10662;DHT22;5379;51.034;7.006;2023-05-29T11:58:46;23.30;95.30
10662;DHT22;5379;51.034;7.006;2023-05-29T12:01:16;23.20;95.40
10662;DHT22;5379;51.034;7.006;2023-05-29T12:03:44;23.00;95.20
10662;DHT22;5379;51.034;7.006;2023-05-29T12:06:11;23.00;95.20
10662;DHT22;5379;51.034;7.006;2023-05-29T12:08:38;23.20;96.00
10662;DHT22;5379;51.034;7.006;2023-05-29T12:11:08;23.30;94.70
10662;DHT22;5379;51.034;7.006;2023-05-29T12:13:35;23.60;94.60
10662;DHT22;5379;51.034;7.006;2023-05-29T12:16:04;23.10;94.60
10662;DHT22;5379;51.034;7.006;2023-05-29T12:18:32;23.20;95.30
10662;DHT22;5379;51.034;7.006;2023-05-29T12:21:00;23.10;95.00
10662;DHT22;5379;51.034;7.006;2023-05-29T12:23:28;23.00;94.90
10662;DHT22;5379;51.034;7.006;2023-05-29T12:25:55;23.10;95.00
10662;DHT22;5379;51.034;7.006;2023-05-29T12:28:24;23.00;94.70
10662;DHT22;5379;51.034;7.006;2023-05-29T12:30:58;23.10;94.80
10662;DHT22;5379;51.034;7.006;2023-05-29T12:33:27;23.10;94.50
10662;DHT22;5379;51.034;7.006;2023-05-29T12:38:23;22.90;93.80
10662;DHT22;5379;51.034;7.006;2023-05-29T12:40:50;23.10;94.50
10662;DHT22;5379;51.034;7.006;2023-05-29T12:43:18;23.20;95.20
10662;DHT22;5379;51.034;7.006;2023-05-29T12:45:54;23.10;94.80
10662;DHT22;5379;51.034;7.006;2023-05-29T12:48:26;23.10;95.30
10662;DHT22;5379;51.034;7.006;2023-05-29T12:50:53;22.90;94.40
10662;DHT22;5379;51.034;7.006;2023-05-29T12:53:20;22.90;94.60
10662;DHT22;5379;51.034;7.006;2023-05-29T12:55:47;23.00;95.20
10662;DHT22;5379;51.034;7.006;2023-05-29T12:58:15;23.10;95.20
10662;DHT22;5379;51.034;7.006;2023-05-29T13:00:43;23.20;94.60
10662;DHT22;5379;51.034;7.006;2023-05-29T13:03:12;23.10;94.50
10662;DHT22;5379;51.034;7.006;2023-05-29T13:05:40;22.80;94.60
10662;DHT22;5379;51.034;7.006;2023-05-29T13:08:07;23.50;94.40
10662;DHT22;5379;51.034;7.006;2023-05-29T13:10:35;23.50;94.90
10662;DHT22;5379;51.034;7.006;2023-05-29T13:13:03;23.30;93.40
10662;DHT22;5379;51.034;7.006;2023-05-29T13:15:30;23.40;94.20
10662;DHT22;5379;51.034;7.006;2023-05-29T13:17:58;23.50;94.20
10662;DHT22;5379;51.034;7.006;2023-05-29T13:20:26;23.50;93.70
10662;DHT22;5379;51.034;7.006;2023-05-29T13:22:54;23.20;94.00
10662;DHT22;5379;51.034;7.006;2023-05-29T13:25:21;23.10;94.60
10662;DHT22;5379;51.034;7.006;2023-05-29T13:27:49;23.30;94.20
10662;DHT22;5379;51.034;7.006;2023-05-29T13:30:17;23.30;94.00
10662;DHT22;5379;51.034;7.006;2023-05-29T13:32:44;23.10;93.70
10662;DHT22;5379;51.034;7.006;2023-05-29T13:35:11;22.90;94.00
10662;DHT22;5379;51.034;7.006;2023-05-29T13:37:39;23.00;93.80
10662;DHT22;5379;51.034;7.006;2023-05-29T13:40:08;23.10;94.50
10662;DHT22;5379;51.034;7.006;2023-05-29T13:42:35;23.40;94.30
10662;DHT22;5379;51.034;7.006;2023-05-29T13:45:03;23.60;93.60
10662;DHT22;5379;51.034;7.006;2023-05-29T13:47:31;23.50;93.40
10662;DHT22;5379;51.034;7.006;2023-05-29T13:49:58;23.70;93.70
10662;DHT22;5379;51.034;7.006;2023-05-29T13:52:25;23.30;94.70
10662;DHT22;5379;51.034;7.006;2023-05-29T13:54:54;23.60;94.00
10662;DHT22;5379;51.034;7.006;2023-05-29T13:57:21;23.60;93.90
10662;DHT22;5379;51.034;7.006;2023-05-29T13:59:48;23.60;94.00
10662;DHT22;5379;51.034;7.006;2023-05-29T14:02:15;23.80;94.10
10662;DHT22;5379;51.034;7.006;2023-05-29T14:04:42;23.90;93.50
10662;DHT22;5379;51.034;7.006;2023-05-29T14:07:09;23.70;93.70
10662;DHT22;5379;51.034;7.006;2023-05-29T14:09:36;23.70;93.90
10662;DHT22;5379;51.034;7.006;2023-05-29T14:12:05;23.80;94.20
10662;DHT22;5379;51.034;7.006;2023-05-29T14:14:32;23.60;94.00
10662;DHT22;5379;51.034;7.006;2023-05-29T14:17:00;23.40;93.80
10662;DHT22;5379;51.034;7.006;2023-05-29T14:19:27;23.60;94.00
10662;DHT22;5379;51.034;7.006;2023-05-29T14:21:53;24.20;93.70
10662;DHT22;5379;51.034;7.006;2023-05-29T14:24:20;23.90;93.10
10662;DHT22;5379;51.034;7.006;2023-05-29T14:26:47;23.50;93.50
10662;DHT22;5379;51.034;7.006;2023-05-29T14:29:16;23.80;94.20
10662;DHT22;5379;51.034;7.006;2023-05-29T14:31:44;24.20;93.10
10662;DHT22;5379;51.034;7.006;2023-05-29T14:34:12;23.70;92.80
10662;DHT22;5379;51.034;7.006;2023-05-29T14:36:39;23.40;93.50
10662;DHT22;5379;51.034;7.006;2023-05-29T14:39:07;23.60;93.50
10662;DHT22;5379;51.034;7.006;2023-05-29T14:41:34;23.60;94.30
10662;DHT22;5379;51.034;7.006;2023-05-29T14:44:01;23.80;93.10
10662;DHT22;5379;51.034;7.006;2023-05-29T14:46:29;23.40;93.70
10662;DHT22;5379;51.034;7.006;2023-05-29T14:48:58;23.60;93.70
10662;DHT22;5379;51.034;7.006;2023-05-29T14:51:25;23.40;93.50
10662;DHT22;5379;51.034;7.006;2023-05-29T14:53:52;23.30;93.30
10662;DHT22;5379;51.034;7.006;2023-05-29T14:56:19;23.20;93.60
10662;DHT22;5379;51.034;7.006;2023-05-29T14:58:46;23.70;93.40
10662;DHT22;5379;51.034;7.006;2023-05-29T15:01:13;23.90;93.70
10662;DHT22;5379;51.034;7.006;2023-05-29T15:03:42;24.00;93.10
10662;DHT22;5379;51.034;7.006;2023-05-29T15:06:09;24.20;93.60
10662;DHT22;5379;51.034;7.006;2023-05-29T15:08:37;24.00;93.20
10662;DHT22;5379;51.034;7.006;2023-05-29T15:11:05;23.90;93.20
10662;DHT22;5379;51.034;7.006;2023-05-29T15:13:33;23.90;93.10
10662;DHT22;5379;51.034;7.006;2023-05-29T15:16:00;23.90;92.80
10662;DHT22;5379;51.034;7.006;2023-05-29T15:18:28;24.30;93.60
10662;DHT22;5379;51.034;7.006;2023-05-29T15:20:57;23.90;93.10
10662;DHT22;5379;51.034;7.006;2023-05-29T15:23:24;24.10;93.00
10662;DHT22;5379;51.034;7.006;2023-05-29T15:25:51;23.60;92.80
10662;DHT22;5379;51.034;7.006;2023-05-29T15:28:18;23.70;93.40
10662;DHT22;5379;51.034;7.006;2023-05-29T15:30:45;23.60;92.90
10662;DHT22;5379;51.034;7.006;2023-05-29T15:33:13;23.10;93.30
10662;DHT22;5379;51.034;7.006;2023-05-29T15:35:40;23.20;93.30
10662;DHT22;5379;51.034;7.006;2023-05-29T15:38:09;22.90;93.50
10662;DHT22;5379;51.034;7.006;2023-05-29T15:40:38;23.20;93.50
10662;DHT22;5379;51.034;7.006;2023-05-29T15:43:05;23.50;93.50
10662;DHT22;5379;51.034;7.006;2023-05-29T15:45:32;23.90;92.60
10662;DHT22;5379;51.034;7.006;2023-05-29T15:47:59;23.80;93.00
10662;DHT22;5379;51.034;7.006;2023-05-29T15:50:26;23.90;92.70
10662;DHT22;5379;51.034;7.006;2023-05-29T15:52:53;23.50;92.80
10662;DHT22;5379;51.034;7.006;2023-05-29T15:55:21;23.50;93.30
10662;DHT22;5379;51.034;7.006;2023-05-29T15:57:48;23.50;93.60
10662;DHT22;5379;51.034;7.006;2023-05-29T16:00:15;23.50;93.10
10662;DHT22;5379;51.034;7.006;2023-05-29T16:02:43;23.80;92.90
10662;DHT22;5379;51.034;7.006;2023-05-29T16:05:10;23.80;93.20
10662;DHT22;5379;51.034;7.006;2023-05-29T16:07:37;23.60;93.00
10662;DHT22;5379;51.034;7.006;2023-05-29T16:10:05;23.70;92.70
10662;DHT22;5379;51.034;7.006;2023-05-29T16:12:33;23.50;93.00
10662;DHT22;5379;51.034;7.006;2023-05-29T16:15:01;23.60;93.10
10662;DHT22;5379;51.034;7.006;2023-05-29T16:17:29;23.70;93.00
10662;DHT22;5379;51.034;7.006;2023-05-29T16:19:56;24.10;92.80
10662;DHT22;5379;51.034;7.006;2023-05-29T16:22:23;23.60;91.90
10662;DHT22;5379;51.034;7.006;2023-05-29T16:24:50;23.70;93.30
10662;DHT22;5379;51.034;7.006;2023-05-29T16:27:18;23.90;92.10
10662;DHT22;5379;51.034;7.006;2023-05-29T16:29:47;24.40;93.50
10662;DHT22;5379;51.034;7.006;2023-05-29T16:32:15;25.80;92.30
10662;DHT22;5379;51.034;7.006;2023-05-29T16:34:42;24.40;91.50
10662;DHT22;5379;51.034;7.006;2023-05-29T16:37:09;24.20;91.90
10662;DHT22;5379;51.034;7.006;2023-05-29T16:39:36;24.30;92.10
10662;DHT22;5379;51.034;7.006;2023-05-29T16:42:04;24.10;91.60
10662;DHT22;5379;51.034;7.006;2023-05-29T16:44:32;24.20;91.40
10662;DHT22;5379;51.034;7.006;2023-05-29T16:47:00;23.90;91.50
10662;DHT22;5379;51.034;7.006;2023-05-29T16:49:27;23.60;91.50
10662;DHT22;5379;51.034;7.006;2023-05-29T16:51:54;23.90;91.90
10662;DHT22;5379;51.034;7.006;2023-05-29T16:54:21;23.90;91.80
10662;DHT22;5379;51.034;7.006;2023-05-29T16:56:48;24.10;91.20
10662;DHT22;5379;51.034;7.006;2023-05-29T16:59:15;23.60;91.50
10662;DHT22;5379;51.034;7.006;2023-05-29T17:01:42;23.60;92.00
10662;DHT22;5379;51.034;7.006;2023-05-29T17:04:11;23.40;91.80
10662;DHT22;5379;51.034;7.006;2023-05-29T17:06:37;23.90;92.20
10662;DHT22;5379;51.034;7.006;2023-05-29T17:09:04;23.80;91.60
10662;DHT22;5379;51.034;7.006;2023-05-29T17:11:33;24.10;92.90
10662;DHT22;5379;51.034;7.006;2023-05-29T17:14:00;24.10;91.60
10662;DHT22;5379;51.034;7.006;2023-05-29T17:16:27;23.20;91.40
10662;DHT22;5379;51.034;7.006;2023-05-29T17:18:54;23.10;92.00
10662;DHT22;5379;51.034;7.006;2023-05-29T17:21:22;22.90;91.30
10662;DHT22;5379;51.034;7.006;2023-05-29T17:23:49;23.10;91.90
10662;DHT22;5379;51.034;7.006;2023-05-29T17:26:20;23.00;91.10
10662;DHT22;5379;51.034;7.006;2023-05-29T17:28:48;23.40;91.30
10662;DHT22;5379;51.034;7.006;2023-05-29T17:31:16;23.30;91.10
10662;DHT22;5379;51.034;7.006;2023-05-29T17:33:43;23.80;91.10
10662;DHT22;5379;51.034;7.006;2023-05-29T17:36:10;24.00;90.90
10662;DHT22;5379;51.034;7.006;2023-05-29T17:41:25;23.90;90.80
10662;DHT22;5379;51.034;7.006;2023-05-29T17:43:52;24.10;90.50
10662;DHT22;5379;51.034;7.006;2023-05-29T17:46:19;24.20;90.40
10662;DHT22;5379;51.034;7.006;2023-05-29T17:48:47;24.20;90.60
10662;DHT22;5379;51.034;7.006;2023-05-29T17:51:15;23.70;90.60
10662;DHT22;5379;51.034;7.006;2023-05-29T17:53:42;23.20;90.40
10662;DHT22;5379;51.034;7.006;2023-05-29T17:56:10;23.10;90.90
10662;DHT22;5379;51.034;7.006;2023-05-29T17:58:37;23.10;91.90
10662;DHT22;5379;51.034;7.006;2023-05-29T18:01:04;23.10;91.20
10662;DHT22;5379;51.034;7.006;2023-05-29T18:03:32;23.10;90.80
10662;DHT22;5379;51.034;7.006;2023-05-29T18:05:59;23.50;91.90
10662;DHT22;5379;51.034;7.006;2023-05-29T18:08:26;23.90;91.00
10662;DHT22;5379;51.034;7.006;2023-05-29T18:10:53;23.40;90.50
10662;DHT22;5379;51.034;7.006;2023-05-29T18:13:22;23.10;90.50
10662;DHT22;5379;51.034;7.006;2023-05-29T18:15:49;23.10;90.90
10662;DHT22;5379;51.034;7.006;2023-05-29T18:18:17;23.10;91.00
10662;DHT22;5379;51.034;7.006;2023-05-29T18:20:45;23.20;90.80
10662;DHT22;5379;51.034;7.006;2023-05-29T18:23:12;22.90;90.40
10662;DHT22;5379;51.034;7.006;2023-05-29T18:25:39;22.70;90.90
10662;DHT22;5379;51.034;7.006;2023-05-29T18:28:06;22.50;90.10
10662;DHT22;5379;51.034;7.006;2023-05-29T18:30:34;22.10;89.60
10662;DHT22;5379;51.034;7.006;2023-05-29T18:33:01;22.20;90.20
10662;DHT22;5379;51.034;7.006;2023-05-29T18:35:29;22.30;90.90
10662;DHT22;5379;51.034;7.006;2023-05-29T18:37:56;22.10;89.30
10662;DHT22;5379;51.034;7.006;2023-05-29T18:40:23;22.10;89.90
10662;DHT22;5379;51.034;7.006;2023-05-29T18:42:50;22.40;90.70
10662;DHT22;5379;51.034;7.006;2023-05-29T18:45:18;22.80;90.20
10662;DHT22;5379;51.034;7.006;2023-05-29T18:47:48;23.10;89.60
10662;DHT22;5379;51.034;7.006;2023-05-29T18:50:15;23.10;89.80
10662;DHT22;5379;51.034;7.006;2023-05-29T18:52:41;22.80;88.90
10662;DHT22;5379;51.034;7.006;2023-05-29T18:55:09;22.50;89.40
10662;DHT22;5379;51.034;7.006;2023-05-29T18:57:36;22.20;89.30
10662;DHT22;5379;51.034;7.006;2023-05-29T19:00:04;22.20;89.60
10662;DHT22;5379;51.034;7.006;2023-05-29T19:02:31;22.50;89.20
10662;DHT22;5379;51.034;7.006;2023-05-29T19:04:59;22.70;88.40
10662;DHT22;5379;51.034;7.006;2023-05-29T19:07:26;22.50;89.10
10662;DHT22;5379;51.034;7.006;2023-05-29T19:09:53;22.60;88.60
10662;DHT22;5379;51.034;7.006;2023-05-29T19:12:24;22.40;88.50
10662;DHT22;5379;51.034;7.006;2023-05-29T19:14:51;22.50;88.30
10662;DHT22;5379;51.034;7.006;2023-05-29T19:17:18;22.60;88.30
10662;DHT22;5379;51.034;7.006;2023-05-29T19:19:46;22.70;89.30
10662;DHT22;5379;51.034;7.006;2023-05-29T19:22:14;22.20;86.30
10662;DHT22;5379;51.034;7.006;2023-05-29T19:24:41;21.90;86.60
10662;DHT22;5379;51.034;7.006;2023-05-29T19:27:08;21.70;86.90
10662;DHT22;5379;51.034;7.006;2023-05-29T19:29:36;21.40;86.30
10662;DHT22;5379;51.034;7.006;2023-05-29T19:32:05;21.60;86.60
10662;DHT22;5379;51.034;7.006;2023-05-29T19:34:33;21.70;86.00
10662;DHT22;5379;51.034;7.006;2023-05-29T19:37:02;21.80;85.50
10662;DHT22;5379;51.034;7.006;2023-05-29T19:39:30;21.70;85.10
10662;DHT22;5379;51.034;7.006;2023-05-29T19:41:57;21.70;85.90
10662;DHT22;5379;51.034;7.006;2023-05-29T19:44:26;21.80;86.10
10662;DHT22;5379;51.034;7.006;2023-05-29T19:46:53;21.90;86.20
10662;DHT22;5379;51.034;7.006;2023-05-29T19:49:20;21.90;86.00
10662;DHT22;5379;51.034;7.006;2023-05-29T19:51:51;21.80;86.50
10662;DHT22;5379;51.034;7.006;2023-05-29T19:54:23;21.70;86.00
10662;DHT22;5379;51.034;7.006;2023-05-29T19:56:52;21.50;85.30
10662;DHT22;5379;51.034;7.006;2023-05-29T19:59:19;21.60;86.10
10662;DHT22;5379;51.034;7.006;2023-05-29T20:01:46;21.70;85.40
10662;DHT22;5379;51.034;7.006;2023-05-29T20:04:13;21.70;84.60
10662;DHT22;5379;51.034;7.006;2023-05-29T20:06:41;21.70;85.20
10662;DHT22;5379;51.034;7.006;2023-05-29T20:09:08;21.70;84.90
10662;DHT22;5379;51.034;7.006;2023-05-29T20:11:35;21.80;85.70
10662;DHT22;5379;51.034;7.006;2023-05-29T20:14:03;21.70;84.80
10662;DHT22;5379;51.034;7.006;2023-05-29T20:16:30;21.60;84.60
10662;DHT22;5379;51.034;7.006;2023-05-29T20:18:57;21.60;84.50
10662;DHT22;5379;51.034;7.006;2023-05-29T20:21:24;21.50;84.90
10662;DHT22;5379;51.034;7.006;2023-05-29T20:23:52;21.50;84.90
10662;DHT22;5379;51.034;7.006;2023-05-29T20:26:18;21.60;85.10
10662;DHT22;5379;51.034;7.006;2023-05-29T20:28:45;21.80;84.10